Time,TemperatureF,DewpointF,PressureIn,WindDirection,WindDirectionDegrees,WindSpeedMPH,WindSpeedGustMPH,Humidity,HourlyPrecipIn,Conditions,Clouds,dailyrainin,SoftwareType,DateUTC
2013-10-10 00:21:00,51.0,43.0,29.18,SSE,154,2.0,-999.0,74,-99.99,,,-99.99,,2013-10-10 07:21:00,
2013-10-10 00:32:00,51.0,43.0,29.18,SSE,154,2.0,-999.0,74,-99.99,,,-99.99,,2013-10-10 07:32:00,
2013-10-10 00:42:00,51.0,43.0,29.18,SSE,154,2.0,-999.0,74,-99.99,,,-99.99,,2013-10-10 07:42:00,
2013-10-10 01:22:00,51.0,42.0,29.19,SSE,157,7.0,-999.0,73,-99.99,,,-99.99,,2013-10-10 08:22:00,
2013-10-10 01:32:00,51.0,42.0,29.19,SSE,157,7.0,-999.0,73,-99.99,,,-99.99,,2013-10-10 08:32:00,
2013-10-10 01:42:00,51.0,42.0,29.19,SSE,157,7.0,-999.0,73,-99.99,,,-99.99,,2013-10-10 08:42:00,
2013-10-10 02:11:00,50.0,42.0,29.21,SSE,156,4.0,-999.0,74,-99.99,,,-99.99,,2013-10-10 09:11:00,
2013-10-10 02:21:00,50.0,42.0,29.21,SSE,156,4.0,-999.0,74,-99.99,,,-99.99,,2013-10-10 09:21:00,
2013-10-10 02:33:00,50.0,42.0,29.21,SSE,156,4.0,-999.0,74,-99.99,,,-99.99,,2013-10-10 09:33:00,
2013-10-10 02:42:00,50.0,42.0,29.21,SSE,156,4.0,-999.0,74,-99.99,,,-99.99,,2013-10-10 09:42:00,
2013-10-10 03:12:00,50.0,41.0,29.22,SE,143,7.0,-999.0,71,-99.99,,,-99.99,,2013-10-10 10:12:00,
2013-10-10 03:23:00,50.0,41.0,29.22,SE,143,7.0,-999.0,71,-99.99,,,-99.99,,2013-10-10 10:23:00,
2013-10-10 03:32:00,50.0,41.0,29.22,SE,143,7.0,-999.0,71,-99.99,,,-99.99,,2013-10-10 10:32:00,
2013-10-10 03:42:00,50.0,41.0,29.22,SE,143,7.0,-999.0,71,-99.99,,,-99.99,,2013-10-10 10:42:00,
2013-10-10 04:12:00,48.0,41.0,29.23,WNW,284,4.0,-999.0,77,-99.99,,,-99.99,,2013-10-10 11:12:00,
2013-10-10 04:22:00,48.0,41.0,29.23,WNW,284,4.0,-999.0,77,-99.99,,,-99.99,,2013-10-10 11:22:00,
2013-10-10 04:33:00,48.0,41.0,29.23,WNW,284,4.0,-999.0,77,-99.99,,,-99.99,,2013-10-10 11:33:00,
2013-10-10 04:42:00,48.0,41.0,29.23,WNW,284,4.0,-999.0,77,-99.99,,,-99.99,,2013-10-10 11:42:00,
2013-10-10 05:11:00,50.0,41.0,29.23,South,189,7.0,-999.0,71,-99.99,,,-99.99,,2013-10-10 12:11:00,
2013-10-10 05:21:00,50.0,41.0,29.23,South,189,7.0,-999.0,71,-99.99,,,-99.99,,2013-10-10 12:21:00,
2013-10-10 05:32:00,50.0,41.0,29.23,South,189,7.0,-999.0,71,-99.99,,,-99.99,,2013-10-10 12:32:00,
2013-10-10 05:41:00,50.0,41.0,29.23,South,189,7.0,-999.0,71,-99.99,,,-99.99,,2013-10-10 12:41:00,
2013-10-10 06:21:00,50.0,41.0,29.24,WSW,251,3.0,-999.0,71,-99.99,,,-99.99,,2013-10-10 13:21:00,
2013-10-10 06:31:00,50.0,41.0,29.24,WSW,251,3.0,-999.0,71,-99.99,,,-99.99,,2013-10-10 13:31:00,
2013-10-10 06:41:00,50.0,41.0,29.24,WSW,251,3.0,-999.0,71,-99.99,,,-99.99,,2013-10-10 13:41:00,
2013-10-10 07:11:00,48.0,41.0,29.26,NE,41,4.0,-999.0,76,-99.99,,,-99.99,,2013-10-10 14:11:00,
2013-10-10 07:21:00,48.0,41.0,29.26,NE,41,4.0,-999.0,76,-99.99,,,-99.99,,2013-10-10 14:21:00,
2013-10-10 07:32:00,48.0,41.0,29.26,NE,41,4.0,-999.0,76,-99.99,,,-99.99,,2013-10-10 14:32:00,
2013-10-10 07:42:00,48.0,41.0,29.26,NE,41,4.0,-999.0,76,-99.99,,,-99.99,,2013-10-10 14:42:00,
2013-10-10 08:11:00,48.0,41.0,29.31,NW,313,6.0,-999.0,75,-99.99,,,-99.99,,2013-10-10 15:11:00,
2013-10-10 08:22:00,48.0,41.0,29.31,NW,313,6.0,-999.0,75,-99.99,,,-99.99,,2013-10-10 15:22:00,
2013-10-10 08:33:00,48.0,41.0,29.31,NW,313,6.0,-999.0,75,-99.99,,,-99.99,,2013-10-10 15:33:00,
2013-10-10 08:43:00,48.0,41.0,29.31,NW,313,6.0,-999.0,75,-99.99,,,-99.99,,2013-10-10 15:43:00,
2013-10-10 09:13:00,52.0,41.0,29.34,ESE,111,4.0,-999.0,67,-99.99,,,-99.99,,2013-10-10 16:13:00,
2013-10-10 09:23:00,52.0,41.0,29.34,ESE,111,4.0,-999.0,67,-99.99,,,-99.99,,2013-10-10 16:23:00,
2013-10-10 09:33:00,52.0,41.0,29.34,ESE,111,4.0,-999.0,67,-99.99,,,-99.99,,2013-10-10 16:33:00,
2013-10-10 09:42:00,52.0,41.0,29.34,ESE,111,4.0,-999.0,67,-99.99,,,-99.99,,2013-10-10 16:42:00,
2013-10-10 10:23:00,60.0,40.0,29.34,SW,233,3.0,-999.0,46,-99.99,,,-99.99,,2013-10-10 17:23:00,
2013-10-10 10:32:00,60.0,40.0,29.34,SW,233,3.0,-999.0,46,-99.99,,,-99.99,,2013-10-10 17:32:00,
2013-10-10 10:42:00,60.0,40.0,29.34,SW,233,3.0,-999.0,46,-99.99,,,-99.99,,2013-10-10 17:42:00,
2013-10-10 12:11:00,66.0,40.0,29.35,SSW,194,4.0,-999.0,38,-99.99,,,-99.99,,2013-10-10 19:11:00,
2013-10-10 12:21:00,66.0,40.0,29.35,SSW,194,4.0,-999.0,38,-99.99,,,-99.99,,2013-10-10 19:21:00,
2013-10-10 12:32:00,66.0,40.0,29.35,SSW,194,4.0,-999.0,38,-99.99,,,-99.99,,2013-10-10 19:32:00,
2013-10-10 12:42:00,66.0,40.0,29.35,SSW,194,4.0,-999.0,38,-99.99,,,-99.99,,2013-10-10 19:42:00,
2013-10-10 13:12:00,69.0,39.0,29.34,WNW,295,1.0,-999.0,33,0.00,,,-99.99,,2013-10-10 20:12:00,
2013-10-10 13:22:00,69.0,39.0,29.34,WNW,295,1.0,-999.0,33,0.00,,,-99.99,,2013-10-10 20:22:00,
2013-10-10 13:32:00,69.0,39.0,29.34,WNW,295,1.0,-999.0,33,0.00,,,-99.99,,2013-10-10 20:32:00,
2013-10-10 13:42:00,69.0,39.0,29.34,WNW,295,1.0,-999.0,33,0.00,,,-99.99,,2013-10-10 20:42:00,
2013-10-10 14:21:00,71.0,37.0,29.33,South,170,4.0,-999.0,29,0.00,,,-99.99,,2013-10-10 21:21:00,
2013-10-10 14:34:00,71.0,37.0,29.33,South,170,4.0,-999.0,29,0.00,,,-99.99,,2013-10-10 21:34:00,
2013-10-10 14:43:00,71.0,37.0,29.33,South,170,4.0,-999.0,29,0.00,,,-99.99,,2013-10-10 21:43:00,
2013-10-10 15:13:00,73.0,37.0,29.31,WSW,258,3.0,-999.0,27,0.00,,,-99.99,,2013-10-10 22:13:00,
2013-10-10 15:24:00,73.0,37.0,29.31,WSW,258,3.0,-999.0,27,0.00,,,-99.99,,2013-10-10 22:24:00,
2013-10-10 15:33:00,73.0,37.0,29.31,WSW,258,3.0,-999.0,27,0.00,,,-99.99,,2013-10-10 22:33:00,
2013-10-10 15:43:00,73.0,37.0,29.31,WSW,258,3.0,-999.0,27,0.00,,,-99.99,,2013-10-10 22:43:00,
2013-10-10 16:23:00,74.0,39.0,29.31,West,264,4.0,-999.0,28,0.00,,,-99.99,,2013-10-10 23:23:00,
2013-10-10 16:33:00,74.0,39.0,29.31,West,264,4.0,-999.0,28,0.00,,,-99.99,,2013-10-10 23:33:00,
2013-10-10 16:43:00,74.0,39.0,29.31,West,264,4.0,-999.0,28,0.00,,,-99.99,,2013-10-10 23:43:00,
2013-10-10 17:11:00,73.0,40.0,29.31,WNW,296,2.0,-999.0,30,0.00,,,0.00,,2013-10-11 00:11:00,
2013-10-10 17:21:00,73.0,40.0,29.31,WNW,296,2.0,-999.0,30,0.00,,,0.00,,2013-10-11 00:21:00,
2013-10-10 17:32:00,73.0,40.0,29.31,WNW,296,2.0,-999.0,30,0.00,,,0.00,,2013-10-11 00:32:00,
2013-10-10 17:42:00,73.0,40.0,29.31,WNW,296,2.0,-999.0,30,0.00,,,0.00,,2013-10-11 00:42:00,
2013-10-10 18:11:00,70.0,41.0,29.30,West,261,3.0,-999.0,34,0.00,,,0.00,,2013-10-11 01:11:00,
2013-10-10 18:21:00,70.0,41.0,29.30,West,261,3.0,-999.0,34,0.00,,,0.00,,2013-10-11 01:21:00,
2013-10-10 18:32:00,70.0,41.0,29.30,West,261,3.0,-999.0,34,0.00,,,0.00,,2013-10-11 01:32:00,
2013-10-10 18:42:00,70.0,41.0,29.30,West,261,3.0,-999.0,34,0.00,,,0.00,,2013-10-11 01:42:00,
2013-10-10 19:22:00,65.0,42.0,29.31,NE,50,0.0,-999.0,43,0.00,,,0.00,,2013-10-11 02:22:00,
2013-10-10 19:32:00,65.0,42.0,29.31,NE,50,0.0,-999.0,43,0.00,,,0.00,,2013-10-11 02:32:00,
2013-10-10 19:42:00,65.0,42.0,29.31,NE,50,0.0,-999.0,43,0.00,,,0.00,,2013-10-11 02:42:00,
2013-10-10 20:11:00,65.0,40.0,29.33,SSE,163,6.0,-999.0,40,0.00,,,0.00,,2013-10-11 03:11:00,
2013-10-10 20:23:00,65.0,40.0,29.33,SSE,163,6.0,-999.0,40,0.00,,,0.00,,2013-10-11 03:23:00,
2013-10-10 20:34:00,65.0,40.0,29.33,SSE,163,6.0,-999.0,40,0.00,,,0.00,,2013-10-11 03:34:00,
2013-10-10 20:44:00,65.0,40.0,29.33,SSE,163,6.0,-999.0,40,0.00,,,0.00,,2013-10-11 03:44:00,
2013-10-10 21:13:00,64.0,42.0,29.34,South,185,4.0,-999.0,45,0.00,,,-99.99,,2013-10-11 04:13:00,
2013-10-10 21:24:00,64.0,42.0,29.34,South,185,4.0,-999.0,45,0.00,,,-99.99,,2013-10-11 04:24:00,
2013-10-10 21:34:00,64.0,42.0,29.34,South,185,4.0,-999.0,45,0.00,,,-99.99,,2013-10-11 04:34:00,
2013-10-10 21:43:00,64.0,42.0,29.34,South,185,4.0,-999.0,45,0.00,,,-99.99,,2013-10-11 04:43:00,
2013-10-10 22:13:00,63.0,42.0,29.36,ESE,110,3.0,-999.0,46,0.00,,,-99.99,,2013-10-11 05:13:00,
2013-10-10 22:23:00,63.0,42.0,29.36,ESE,110,3.0,-999.0,46,0.00,,,-99.99,,2013-10-11 05:23:00,
2013-10-10 22:34:00,63.0,42.0,29.36,ESE,110,3.0,-999.0,46,0.00,,,-99.99,,2013-10-11 05:34:00,
2013-10-10 22:43:00,63.0,42.0,29.36,ESE,110,3.0,-999.0,46,0.00,,,-99.99,,2013-10-11 05:43:00,
2013-10-10 23:12:00,60.0,42.0,29.37,NNW,333,6.0,-999.0,51,0.00,,,-99.99,,2013-10-11 06:12:00,
2013-10-10 23:22:00,60.0,42.0,29.37,NNW,333,6.0,-999.0,51,0.00,,,-99.99,,2013-10-11 06:22:00,
2013-10-10 23:32:00,60.0,42.0,29.37,NNW,333,6.0,-999.0,51,0.00,,,-99.99,,2013-10-11 06:32:00,
2013-10-10 23:42:00,60.0,42.0,29.37,NNW,333,6.0,-999.0,51,0.00,,,-99.99,,2013-10-11 06:42:00,